Portada
METAR-TAF:

METAR-TAF

Aeroports :

Ginebra, Suïssa

Aeroport Internacional de Ginebra

latitud: 46-15N, longitud: 006-08E, altitud: 420 m

Observació

L'informe es va fer fa 19 minuts, a les 01:50 UTC
Vent 9 kt del Nord/Nord-Est
Temperatura -1°C
Humitat 74%
Pressió 1010 hPa
Visibilitat: 6000 m
Cel ennuvolat a una alçada de 2000 ft

METAR: LSGG 240150Z AUTO 02009KT 6000 BKN020 M01/M05 Q1010 NOSIG

Hora: 03:09 (02:09 UTC)

Pronòstic

L'informe es va fer fa 2 hores i 44 minuts, a les 23:25 UTC
Pronòstic vàlid del 24 a les 00 UTC al 25 a les 06 UTC
Vent 15 kt del Nord/Nord-Est
Visibilitat: 7000 m
Cel cobert a una alçada de 2000 ft

TAF: LSGG 232325Z 2400/2506 03015KT 7000 OVC020 TX02/2415Z TNM01/2406Z TNM02/2505Z

Observacions i pronòstics meteorològics de més de 4000 aeroports (METAR i TAF).

Les estacions disponibles són els punts grocs i vermells al mapa.

Posi el ratolí al punt desitjat per veure el nom de l'estació.

Feu clic per veure les observacions i els pronòstics meteorològics.

Per canviar el mapa: feu clic els botons verds amb una creu de color negre per apropar; al botó verd amb un guió per allunyar la imatge; o en les fletxes verdes per a mapes adjacents.


METAR-TAF: